Arbovale, West Virginia
Current Conditions -  °F | °C
As of 4:51 AM on Sunday 26 Oct 2014 (Local Time) from KEKN Reporting Station
Clear Clear  
Wind Chill: 52°   Ceiling: Unl
Heat Index: 52°   Visibility: 10mi
Dew Point: 32°   Wind: 13mph
Humidity: 47%   Direction: 300°WNW
Pressure: 29.87"   Gusts: 20mph
Location:  38.44°N, 79.82°W
Report Text: KEKN 260851Z AUTO 30011G17KT 10SM CLR 11/00 A2987 RMK AO2 SLP115 T01110000 55000 TSNO
Loading
Personal Weather Stations






























Interactive Weather Map
Tropical Storm Tracking
New forecast layout! Learn more

10-Day Weather Forecast

Advertisements
Track Severe Weather on mobile